sensor_id;sensor_type;location;lat;lon;timestamp;P1;durP1;ratioP1;P2;durP2;ratioP2
73120;SDS011;61307;49.628;-1.624;2023-03-01T00:02:17;4.03;;;2.20;;
73120;SDS011;61307;49.628;-1.624;2023-03-01T00:04:44;3.40;;;2.20;;
73120;SDS011;61307;49.628;-1.624;2023-03-01T00:07:12;3.10;;;2.20;;
73120;SDS011;61307;49.628;-1.624;2023-03-01T00:09:39;3.40;;;2.20;;
73120;SDS011;61307;49.628;-1.624;2023-03-01T00:12:06;3.30;;;2.22;;
73120;SDS011;61307;49.628;-1.624;2023-03-01T00:14:33;2.42;;;1.85;;
73120;SDS011;61307;49.628;-1.624;2023-03-01T00:17:01;3.47;;;2.30;;
73120;SDS011;61307;49.628;-1.624;2023-03-01T00:19:30;2.40;;;2.00;;
73120;SDS011;61307;49.628;-1.624;2023-03-01T00:21:57;3.03;;;2.15;;
73120;SDS011;61307;49.628;-1.624;2023-03-01T00:24:24;2.20;;;2.00;;
73120;SDS011;61307;49.628;-1.624;2023-03-01T00:26:52;3.38;;;2.30;;
73120;SDS011;61307;49.628;-1.624;2023-03-01T00:29:21;2.15;;;1.90;;
73120;SDS011;61307;49.628;-1.624;2023-03-01T00:31:49;3.10;;;2.17;;
73120;SDS011;61307;49.628;-1.624;2023-03-01T00:34:16;3.13;;;2.17;;
73120;SDS011;61307;49.628;-1.624;2023-03-01T00:36:44;2.92;;;2.03;;
73120;SDS011;61307;49.628;-1.624;2023-03-01T00:39:12;3.22;;;2.28;;
73120;SDS011;61307;49.628;-1.624;2023-03-01T00:41:41;2.22;;;2.03;;
73120;SDS011;61307;49.628;-1.624;2023-03-01T00:44:09;2.83;;;2.00;;
73120;SDS011;61307;49.628;-1.624;2023-03-01T00:46:36;3.47;;;1.75;;
73120;SDS011;61307;49.628;-1.624;2023-03-01T00:49:04;2.95;;;2.03;;
73120;SDS011;61307;49.628;-1.624;2023-03-01T00:51:31;3.17;;;2.17;;
73120;SDS011;61307;49.628;-1.624;2023-03-01T00:54:00;3.97;;;2.08;;
73120;SDS011;61307;49.628;-1.624;2023-03-01T00:56:29;2.95;;;2.08;;
73120;SDS011;61307;49.628;-1.624;2023-03-01T00:58:56;2.75;;;1.88;;
73120;SDS011;61307;49.628;-1.624;2023-03-01T01:01:24;3.88;;;2.13;;
73120;SDS011;61307;49.628;-1.624;2023-03-01T01:03:56;2.22;;;2.03;;
73120;SDS011;61307;49.628;-1.624;2023-03-01T01:06:25;2.70;;;1.88;;
73120;SDS011;61307;49.628;-1.624;2023-03-01T01:08:54;2.85;;;2.20;;
73120;SDS011;61307;49.628;-1.624;2023-03-01T01:11:24;2.60;;;1.80;;
73120;SDS011;61307;49.628;-1.624;2023-03-01T01:13:52;3.58;;;2.17;;
73120;SDS011;61307;49.628;-1.624;2023-03-01T01:16:21;2.88;;;2.17;;
73120;SDS011;61307;49.628;-1.624;2023-03-01T01:18:49;2.17;;;1.70;;
73120;SDS011;61307;49.628;-1.624;2023-03-01T01:21:18;3.28;;;1.92;;
73120;SDS011;61307;49.628;-1.624;2023-03-01T01:23:47;2.90;;;2.03;;
73120;SDS011;61307;49.628;-1.624;2023-03-01T01:26:16;2.38;;;1.83;;
73120;SDS011;61307;49.628;-1.624;2023-03-01T01:28:46;2.90;;;1.92;;
73120;SDS011;61307;49.628;-1.624;2023-03-01T01:31:13;2.25;;;1.90;;
73120;SDS011;61307;49.628;-1.624;2023-03-01T01:33:41;3.40;;;1.90;;
73120;SDS011;61307;49.628;-1.624;2023-03-01T01:36:08;2.60;;;2.03;;
73120;SDS011;61307;49.628;-1.624;2023-03-01T01:38:36;2.53;;;1.90;;
73120;SDS011;61307;49.628;-1.624;2023-03-01T01:41:04;2.80;;;2.25;;
73120;SDS011;61307;49.628;-1.624;2023-03-01T01:43:33;1.75;;;1.60;;
73120;SDS011;61307;49.628;-1.624;2023-03-01T01:46:03;2.83;;;2.00;;
73120;SDS011;61307;49.628;-1.624;2023-03-01T01:48:34;2.67;;;2.10;;
73120;SDS011;61307;49.628;-1.624;2023-03-01T01:51:07;1.92;;;1.73;;
73120;SDS011;61307;49.628;-1.624;2023-03-01T01:53:38;2.08;;;1.70;;
73120;SDS011;61307;49.628;-1.624;2023-03-01T01:56:06;3.30;;;1.90;;
73120;SDS011;61307;49.628;-1.624;2023-03-01T01:58:36;2.28;;;1.65;;
73120;SDS011;61307;49.628;-1.624;2023-03-01T02:01:06;3.15;;;1.80;;
73120;SDS011;61307;49.628;-1.624;2023-03-01T02:03:34;2.60;;;1.90;;
73120;SDS011;61307;49.628;-1.624;2023-03-01T02:06:10;2.92;;;2.08;;
73120;SDS011;61307;49.628;-1.624;2023-03-01T02:08:41;2.75;;;1.80;;
73120;SDS011;61307;49.628;-1.624;2023-03-01T02:11:10;3.10;;;1.95;;
73120;SDS011;61307;49.628;-1.624;2023-03-01T02:13:39;3.08;;;2.10;;
73120;SDS011;61307;49.628;-1.624;2023-03-01T02:16:09;3.20;;;2.15;;
73120;SDS011;61307;49.628;-1.624;2023-03-01T02:18:39;4.15;;;1.95;;
73120;SDS011;61307;49.628;-1.624;2023-03-01T02:21:10;2.70;;;1.90;;
73120;SDS011;61307;49.628;-1.624;2023-03-01T02:23:52;2.03;;;1.80;;
73120;SDS011;61307;49.628;-1.624;2023-03-01T02:26:23;4.50;;;2.28;;
73120;SDS011;61307;49.628;-1.624;2023-03-01T02:28:58;2.90;;;2.10;;
73120;SDS011;61307;49.628;-1.624;2023-03-01T02:31:25;2.97;;;1.95;;
73120;SDS011;61307;49.628;-1.624;2023-03-01T02:34:09;2.42;;;1.90;;
73120;SDS011;61307;49.628;-1.624;2023-03-01T02:36:39;2.53;;;2.10;;
73120;SDS011;61307;49.628;-1.624;2023-03-01T02:39:10;3.22;;;2.00;;
73120;SDS011;61307;49.628;-1.624;2023-03-01T02:41:44;2.63;;;2.10;;
73120;SDS011;61307;49.628;-1.624;2023-03-01T02:44:14;2.83;;;2.03;;
73120;SDS011;61307;49.628;-1.624;2023-03-01T02:46:43;2.30;;;1.98;;
73120;SDS011;61307;49.628;-1.624;2023-03-01T02:49:21;3.42;;;2.30;;
73120;SDS011;61307;49.628;-1.624;2023-03-01T02:55:04;2.47;;;1.90;;
73120;SDS011;61307;49.628;-1.624;2023-03-01T02:57:35;2.75;;;2.20;;
73120;SDS011;61307;49.628;-1.624;2023-03-01T03:00:06;2.92;;;1.88;;
73120;SDS011;61307;49.628;-1.624;2023-03-01T03:02:35;2.42;;;2.22;;
73120;SDS011;61307;49.628;-1.624;2023-03-01T03:05:04;3.50;;;2.40;;
73120;SDS011;61307;49.628;-1.624;2023-03-01T03:07:33;3.33;;;2.10;;
73120;SDS011;61307;49.628;-1.624;2023-03-01T03:10:02;2.10;;;1.90;;
73120;SDS011;61307;49.628;-1.624;2023-03-01T03:12:29;2.45;;;1.90;;
73120;SDS011;61307;49.628;-1.624;2023-03-01T03:14:56;2.65;;;2.17;;
73120;SDS011;61307;49.628;-1.624;2023-03-01T03:17:25;2.85;;;2.10;;
73120;SDS011;61307;49.628;-1.624;2023-03-01T03:19:52;3.10;;;2.00;;
73120;SDS011;61307;49.628;-1.624;2023-03-01T03:22:19;2.83;;;2.10;;
73120;SDS011;61307;49.628;-1.624;2023-03-01T03:24:46;2.58;;;2.03;;
73120;SDS011;61307;49.628;-1.624;2023-03-01T03:27:13;2.80;;;2.47;;
73120;SDS011;61307;49.628;-1.624;2023-03-01T03:29:40;2.80;;;2.10;;
73120;SDS011;61307;49.628;-1.624;2023-03-01T03:32:07;2.55;;;1.95;;
73120;SDS011;61307;49.628;-1.624;2023-03-01T03:34:36;2.72;;;2.10;;
73120;SDS011;61307;49.628;-1.624;2023-03-01T03:37:03;2.95;;;2.03;;
73120;SDS011;61307;49.628;-1.624;2023-03-01T03:39:50;3.50;;;2.40;;
73120;SDS011;61307;49.628;-1.624;2023-03-01T03:42:20;3.53;;;2.10;;
73120;SDS011;61307;49.628;-1.624;2023-03-01T03:44:47;2.53;;;2.20;;
73120;SDS011;61307;49.628;-1.624;2023-03-01T03:47:14;3.28;;;2.40;;
73120;SDS011;61307;49.628;-1.624;2023-03-01T03:49:43;3.58;;;2.53;;
73120;SDS011;61307;49.628;-1.624;2023-03-01T03:52:10;2.65;;;2.10;;
73120;SDS011;61307;49.628;-1.624;2023-03-01T03:54:38;2.50;;;2.30;;
73120;SDS011;61307;49.628;-1.624;2023-03-01T03:57:06;3.33;;;2.30;;
73120;SDS011;61307;49.628;-1.624;2023-03-01T03:59:34;2.72;;;2.42;;
73120;SDS011;61307;49.628;-1.624;2023-03-01T04:02:01;2.95;;;2.33;;
73120;SDS011;61307;49.628;-1.624;2023-03-01T04:04:28;3.33;;;2.80;;
73120;SDS011;61307;49.628;-1.624;2023-03-01T04:06:56;3.45;;;2.33;;
73120;SDS011;61307;49.628;-1.624;2023-03-01T04:09:23;3.47;;;2.50;;
73120;SDS011;61307;49.628;-1.624;2023-03-01T04:11:51;3.33;;;2.53;;
73120;SDS011;61307;49.628;-1.624;2023-03-01T04:14:18;4.38;;;2.30;;
73120;SDS011;61307;49.628;-1.624;2023-03-01T04:16:45;2.85;;;2.20;;
73120;SDS011;61307;49.628;-1.624;2023-03-01T04:19:12;2.67;;;2.47;;
73120;SDS011;61307;49.628;-1.624;2023-03-01T04:21:40;2.85;;;2.30;;
73120;SDS011;61307;49.628;-1.624;2023-03-01T04:24:08;2.35;;;2.15;;
73120;SDS011;61307;49.628;-1.624;2023-03-01T04:26:36;4.40;;;2.50;;
73120;SDS011;61307;49.628;-1.624;2023-03-01T04:29:03;3.10;;;2.17;;
73120;SDS011;61307;49.628;-1.624;2023-03-01T04:31:30;4.18;;;2.72;;
73120;SDS011;61307;49.628;-1.624;2023-03-01T04:33:57;2.78;;;2.42;;
73120;SDS011;61307;49.628;-1.624;2023-03-01T04:36:26;2.65;;;2.28;;
73120;SDS011;61307;49.628;-1.624;2023-03-01T04:38:54;3.90;;;2.60;;
73120;SDS011;61307;49.628;-1.624;2023-03-01T04:41:23;5.45;;;2.70;;
73120;SDS011;61307;49.628;-1.624;2023-03-01T04:43:51;2.78;;;2.10;;
73120;SDS011;61307;49.628;-1.624;2023-03-01T04:46:19;3.05;;;2.40;;
73120;SDS011;61307;49.628;-1.624;2023-03-01T04:48:47;3.33;;;2.30;;
73120;SDS011;61307;49.628;-1.624;2023-03-01T04:51:14;2.65;;;2.28;;
73120;SDS011;61307;49.628;-1.624;2023-03-01T04:53:43;2.67;;;2.40;;
73120;SDS011;61307;49.628;-1.624;2023-03-01T04:56:11;2.80;;;2.42;;
73120;SDS011;61307;49.628;-1.624;2023-03-01T04:58:40;2.92;;;2.30;;
73120;SDS011;61307;49.628;-1.624;2023-03-01T05:01:08;4.38;;;2.65;;
73120;SDS011;61307;49.628;-1.624;2023-03-01T05:03:40;2.63;;;2.38;;
73120;SDS011;61307;49.628;-1.624;2023-03-01T05:06:08;4.88;;;2.50;;
73120;SDS011;61307;49.628;-1.624;2023-03-01T05:08:36;3.22;;;2.42;;
73120;SDS011;61307;49.628;-1.624;2023-03-01T05:11:04;3.75;;;2.38;;
73120;SDS011;61307;49.628;-1.624;2023-03-01T05:13:33;3.75;;;2.70;;
73120;SDS011;61307;49.628;-1.624;2023-03-01T05:16:02;3.30;;;2.53;;
73120;SDS011;61307;49.628;-1.624;2023-03-01T05:18:31;3.72;;;2.85;;
73120;SDS011;61307;49.628;-1.624;2023-03-01T05:21:01;3.35;;;2.50;;
73120;SDS011;61307;49.628;-1.624;2023-03-01T05:23:29;3.17;;;2.80;;
73120;SDS011;61307;49.628;-1.624;2023-03-01T05:25:57;3.50;;;2.90;;
73120;SDS011;61307;49.628;-1.624;2023-03-01T05:28:24;2.92;;;2.53;;
73120;SDS011;61307;49.628;-1.624;2023-03-01T05:30:53;3.05;;;2.75;;
73120;SDS011;61307;49.628;-1.624;2023-03-01T05:33:22;3.03;;;2.72;;
73120;SDS011;61307;49.628;-1.624;2023-03-01T05:35:50;6.53;;;3.08;;
73120;SDS011;61307;49.628;-1.624;2023-03-01T05:38:19;3.22;;;2.72;;
73120;SDS011;61307;49.628;-1.624;2023-03-01T05:40:47;3.10;;;2.80;;
73120;SDS011;61307;49.628;-1.624;2023-03-01T05:43:15;4.03;;;2.85;;
73120;SDS011;61307;49.628;-1.624;2023-03-01T05:45:43;3.33;;;2.22;;
73120;SDS011;61307;49.628;-1.624;2023-03-01T05:48:11;5.00;;;2.47;;
73120;SDS011;61307;49.628;-1.624;2023-03-01T05:50:40;2.83;;;2.45;;
73120;SDS011;61307;49.628;-1.624;2023-03-01T05:53:10;3.42;;;2.40;;
73120;SDS011;61307;49.628;-1.624;2023-03-01T05:55:38;2.97;;;2.35;;
73120;SDS011;61307;49.628;-1.624;2023-03-01T05:58:07;5.90;;;2.55;;
73120;SDS011;61307;49.628;-1.624;2023-03-01T06:00:35;3.00;;;2.40;;
73120;SDS011;61307;49.628;-1.624;2023-03-01T06:03:03;3.05;;;2.50;;
73120;SDS011;61307;49.628;-1.624;2023-03-01T06:05:30;5.93;;;2.35;;
73120;SDS011;61307;49.628;-1.624;2023-03-01T06:07:59;3.75;;;2.40;;
73120;SDS011;61307;49.628;-1.624;2023-03-01T06:10:27;2.60;;;2.38;;
73120;SDS011;61307;49.628;-1.624;2023-03-01T06:12:54;2.35;;;2.13;;
73120;SDS011;61307;49.628;-1.624;2023-03-01T06:15:22;2.42;;;1.92;;
73120;SDS011;61307;49.628;-1.624;2023-03-01T06:17:49;2.55;;;2.20;;
73120;SDS011;61307;49.628;-1.624;2023-03-01T06:20:17;2.83;;;1.95;;
73120;SDS011;61307;49.628;-1.624;2023-03-01T06:22:46;2.58;;;2.03;;
73120;SDS011;61307;49.628;-1.624;2023-03-01T06:25:16;2.72;;;2.28;;
73120;SDS011;61307;49.628;-1.624;2023-03-01T06:27:45;3.88;;;2.30;;
73120;SDS011;61307;49.628;-1.624;2023-03-01T06:30:15;2.97;;;2.40;;
73120;SDS011;61307;49.628;-1.624;2023-03-01T06:32:43;3.58;;;2.00;;
73120;SDS011;61307;49.628;-1.624;2023-03-01T06:35:11;4.97;;;2.30;;
73120;SDS011;61307;49.628;-1.624;2023-03-01T06:37:42;3.78;;;2.28;;
73120;SDS011;61307;49.628;-1.624;2023-03-01T06:40:10;3.85;;;2.20;;
73120;SDS011;61307;49.628;-1.624;2023-03-01T06:42:41;2.38;;;2.10;;
73120;SDS011;61307;49.628;-1.624;2023-03-01T06:45:09;4.07;;;2.08;;
73120;SDS011;61307;49.628;-1.624;2023-03-01T06:47:37;2.25;;;2.05;;
73120;SDS011;61307;49.628;-1.624;2023-03-01T06:50:04;3.10;;;2.15;;
73120;SDS011;61307;49.628;-1.624;2023-03-01T06:52:32;2.97;;;2.20;;
73120;SDS011;61307;49.628;-1.624;2023-03-01T06:54:59;2.65;;;1.98;;
73120;SDS011;61307;49.628;-1.624;2023-03-01T06:57:26;4.20;;;2.30;;
73120;SDS011;61307;49.628;-1.624;2023-03-01T06:59:55;3.47;;;2.28;;
73120;SDS011;61307;49.628;-1.624;2023-03-01T07:02:22;4.07;;;2.00;;
73120;SDS011;61307;49.628;-1.624;2023-03-01T07:04:50;2.78;;;2.20;;
73120;SDS011;61307;49.628;-1.624;2023-03-01T07:07:17;3.13;;;2.22;;
73120;SDS011;61307;49.628;-1.624;2023-03-01T07:09:45;5.30;;;2.30;;
73120;SDS011;61307;49.628;-1.624;2023-03-01T07:12:13;3.25;;;2.22;;
73120;SDS011;61307;49.628;-1.624;2023-03-01T07:14:40;2.70;;;2.10;;
73120;SDS011;61307;49.628;-1.624;2023-03-01T07:17:08;2.35;;;1.90;;
73120;SDS011;61307;49.628;-1.624;2023-03-01T07:19:36;2.10;;;1.80;;
73120;SDS011;61307;49.628;-1.624;2023-03-01T07:22:03;6.65;;;2.55;;
73120;SDS011;61307;49.628;-1.624;2023-03-01T07:24:32;2.38;;;1.88;;
73120;SDS011;61307;49.628;-1.624;2023-03-01T07:27:00;3.20;;;1.98;;
73120;SDS011;61307;49.628;-1.624;2023-03-01T07:29:27;3.85;;;2.38;;
73120;SDS011;61307;49.628;-1.624;2023-03-01T07:31:55;3.60;;;2.40;;
73120;SDS011;61307;49.628;-1.624;2023-03-01T07:34:23;2.33;;;1.90;;
73120;SDS011;61307;49.628;-1.624;2023-03-01T07:36:51;2.72;;;2.15;;
73120;SDS011;61307;49.628;-1.624;2023-03-01T07:39:18;2.50;;;2.30;;
73120;SDS011;61307;49.628;-1.624;2023-03-01T07:41:45;3.83;;;2.58;;
73120;SDS011;61307;49.628;-1.624;2023-03-01T07:44:12;3.50;;;2.50;;
73120;SDS011;61307;49.628;-1.624;2023-03-01T07:46:40;3.95;;;2.67;;
73120;SDS011;61307;49.628;-1.624;2023-03-01T07:49:07;3.38;;;2.10;;
73120;SDS011;61307;49.628;-1.624;2023-03-01T07:51:35;3.53;;;2.67;;
73120;SDS011;61307;49.628;-1.624;2023-03-01T07:54:03;3.42;;;2.58;;
73120;SDS011;61307;49.628;-1.624;2023-03-01T07:56:30;6.28;;;2.42;;
73120;SDS011;61307;49.628;-1.624;2023-03-01T07:58:58;3.55;;;2.42;;
73120;SDS011;61307;49.628;-1.624;2023-03-01T08:01:26;4.65;;;2.88;;
73120;SDS011;61307;49.628;-1.624;2023-03-01T08:03:53;7.43;;;3.30;;
73120;SDS011;61307;49.628;-1.624;2023-03-01T08:06:20;8.20;;;2.50;;
73120;SDS011;61307;49.628;-1.624;2023-03-01T08:08:48;6.05;;;2.65;;
73120;SDS011;61307;49.628;-1.624;2023-03-01T08:11:16;4.07;;;2.47;;
73120;SDS011;61307;49.628;-1.624;2023-03-01T08:13:43;3.80;;;2.33;;
73120;SDS011;61307;49.628;-1.624;2023-03-01T08:16:14;4.30;;;2.75;;
73120;SDS011;61307;49.628;-1.624;2023-03-01T08:18:42;5.10;;;2.85;;
73120;SDS011;61307;49.628;-1.624;2023-03-01T08:21:10;6.45;;;2.60;;
73120;SDS011;61307;49.628;-1.624;2023-03-01T08:23:40;4.90;;;2.47;;
73120;SDS011;61307;49.628;-1.624;2023-03-01T08:26:10;3.10;;;2.63;;
73120;SDS011;61307;49.628;-1.624;2023-03-01T08:28:38;4.65;;;2.42;;
73120;SDS011;61307;49.628;-1.624;2023-03-01T08:31:13;3.47;;;2.45;;
73120;SDS011;61307;49.628;-1.624;2023-03-01T08:33:41;4.90;;;2.50;;
73120;SDS011;61307;49.628;-1.624;2023-03-01T08:36:08;3.25;;;2.53;;
73120;SDS011;61307;49.628;-1.624;2023-03-01T08:38:35;3.67;;;2.78;;
73120;SDS011;61307;49.628;-1.624;2023-03-01T08:41:03;4.25;;;2.85;;
73120;SDS011;61307;49.628;-1.624;2023-03-01T08:43:32;3.95;;;2.50;;
73120;SDS011;61307;49.628;-1.624;2023-03-01T08:45:59;4.05;;;2.72;;
73120;SDS011;61307;49.628;-1.624;2023-03-01T08:48:27;3.63;;;2.47;;
73120;SDS011;61307;49.628;-1.624;2023-03-01T08:50:55;3.25;;;2.42;;
73120;SDS011;61307;49.628;-1.624;2023-03-01T08:53:22;6.05;;;3.10;;
73120;SDS011;61307;49.628;-1.624;2023-03-01T08:55:49;3.33;;;2.55;;
73120;SDS011;61307;49.628;-1.624;2023-03-01T08:58:16;4.10;;;2.60;;
73120;SDS011;61307;49.628;-1.624;2023-03-01T09:00:44;3.17;;;2.70;;
73120;SDS011;61307;49.628;-1.624;2023-03-01T09:03:11;5.60;;;3.03;;
73120;SDS011;61307;49.628;-1.624;2023-03-01T09:05:39;7.40;;;3.00;;
73120;SDS011;61307;49.628;-1.624;2023-03-01T09:08:06;3.42;;;2.65;;
73120;SDS011;61307;49.628;-1.624;2023-03-01T09:10:33;6.70;;;3.28;;
73120;SDS011;61307;49.628;-1.624;2023-03-01T09:13:04;5.50;;;2.88;;
73120;SDS011;61307;49.628;-1.624;2023-03-01T09:15:31;3.88;;;2.92;;
73120;SDS011;61307;49.628;-1.624;2023-03-01T09:18:00;6.57;;;2.88;;
73120;SDS011;61307;49.628;-1.624;2023-03-01T09:20:27;9.07;;;3.08;;
73120;SDS011;61307;49.628;-1.624;2023-03-01T09:22:59;3.42;;;2.88;;
73120;SDS011;61307;49.628;-1.624;2023-03-01T09:25:29;11.82;;;3.60;;
73120;SDS011;61307;49.628;-1.624;2023-03-01T09:27:56;6.15;;;3.13;;
73120;SDS011;61307;49.628;-1.624;2023-03-01T09:30:23;5.57;;;3.22;;
73120;SDS011;61307;49.628;-1.624;2023-03-01T09:32:50;4.38;;;3.10;;
73120;SDS011;61307;49.628;-1.624;2023-03-01T09:35:20;4.40;;;3.10;;
73120;SDS011;61307;49.628;-1.624;2023-03-01T09:37:50;6.65;;;3.33;;
73120;SDS011;61307;49.628;-1.624;2023-03-01T09:40:19;4.18;;;3.15;;
73120;SDS011;61307;49.628;-1.624;2023-03-01T09:42:54;3.67;;;3.05;;
73120;SDS011;61307;49.628;-1.624;2023-03-01T09:45:27;6.25;;;3.00;;
73120;SDS011;61307;49.628;-1.624;2023-03-01T09:47:59;3.67;;;2.72;;
73120;SDS011;61307;49.628;-1.624;2023-03-01T09:50:33;7.57;;;3.30;;
73120;SDS011;61307;49.628;-1.624;2023-03-01T09:53:03;7.43;;;2.70;;
73120;SDS011;61307;49.628;-1.624;2023-03-01T09:55:33;4.72;;;2.88;;
73120;SDS011;61307;49.628;-1.624;2023-03-01T09:58:08;4.75;;;3.13;;
73120;SDS011;61307;49.628;-1.624;2023-03-01T10:00:51;5.15;;;3.40;;
73120;SDS011;61307;49.628;-1.624;2023-03-01T10:03:22;4.05;;;3.03;;
73120;SDS011;61307;49.628;-1.624;2023-03-01T10:05:58;7.43;;;3.30;;
73120;SDS011;61307;49.628;-1.624;2023-03-01T10:08:31;5.63;;;2.80;;
73120;SDS011;61307;49.628;-1.624;2023-03-01T10:11:04;5.97;;;3.15;;
73120;SDS011;61307;49.628;-1.624;2023-03-01T10:13:45;3.78;;;2.70;;
73120;SDS011;61307;49.628;-1.624;2023-03-01T10:16:19;3.45;;;2.60;;
73120;SDS011;61307;49.628;-1.624;2023-03-01T10:18:52;4.63;;;2.80;;
73120;SDS011;61307;49.628;-1.624;2023-03-01T10:21:23;3.80;;;3.05;;
73120;SDS011;61307;49.628;-1.624;2023-03-01T10:23:52;5.22;;;2.35;;
73120;SDS011;61307;49.628;-1.624;2023-03-01T10:26:23;2.97;;;2.20;;
73120;SDS011;61307;49.628;-1.624;2023-03-01T10:29:06;4.10;;;2.50;;
73120;SDS011;61307;49.628;-1.624;2023-03-01T10:31:41;4.18;;;2.70;;
73120;SDS011;61307;49.628;-1.624;2023-03-01T10:34:11;3.97;;;2.58;;
73120;SDS011;61307;49.628;-1.624;2023-03-01T10:36:41;7.15;;;2.50;;
73120;SDS011;61307;49.628;-1.624;2023-03-01T10:39:15;7.55;;;2.55;;
73120;SDS011;61307;49.628;-1.624;2023-03-01T10:41:54;4.85;;;2.47;;
73120;SDS011;61307;49.628;-1.624;2023-03-01T10:44:36;4.35;;;2.60;;
73120;SDS011;61307;49.628;-1.624;2023-03-01T10:47:08;3.10;;;2.30;;
73120;SDS011;61307;49.628;-1.624;2023-03-01T10:49:51;8.57;;;2.78;;
73120;SDS011;61307;49.628;-1.624;2023-03-01T10:52:21;5.60;;;2.70;;
73120;SDS011;61307;49.628;-1.624;2023-03-01T10:54:54;4.15;;;2.50;;
73120;SDS011;61307;49.628;-1.624;2023-03-01T10:57:28;4.53;;;2.30;;
73120;SDS011;61307;49.628;-1.624;2023-03-01T11:00:18;4.53;;;2.40;;
73120;SDS011;61307;49.628;-1.624;2023-03-01T11:02:48;5.53;;;2.38;;
73120;SDS011;61307;49.628;-1.624;2023-03-01T11:05:18;3.20;;;1.92;;
73120;SDS011;61307;49.628;-1.624;2023-03-01T11:07:51;3.55;;;2.20;;
73120;SDS011;61307;49.628;-1.624;2023-03-01T11:10:20;4.40;;;2.47;;
73120;SDS011;61307;49.628;-1.624;2023-03-01T11:12:50;3.78;;;2.15;;
73120;SDS011;61307;49.628;-1.624;2023-03-01T11:15:21;6.85;;;2.20;;
73120;SDS011;61307;49.628;-1.624;2023-03-01T11:17:51;3.22;;;2.38;;
73120;SDS011;61307;49.628;-1.624;2023-03-01T11:20:23;3.97;;;2.17;;
73120;SDS011;61307;49.628;-1.624;2023-03-01T11:22:55;4.82;;;2.10;;
73120;SDS011;61307;49.628;-1.624;2023-03-01T11:25:26;3.67;;;2.10;;
73120;SDS011;61307;49.628;-1.624;2023-03-01T11:27:55;7.60;;;2.10;;
73120;SDS011;61307;49.628;-1.624;2023-03-01T11:30:26;4.80;;;2.20;;
73120;SDS011;61307;49.628;-1.624;2023-03-01T11:33:01;4.10;;;2.47;;
73120;SDS011;61307;49.628;-1.624;2023-03-01T11:35:35;3.45;;;2.15;;
73120;SDS011;61307;49.628;-1.624;2023-03-01T11:38:12;4.80;;;2.15;;
73120;SDS011;61307;49.628;-1.624;2023-03-01T11:40:46;5.88;;;2.15;;
73120;SDS011;61307;49.628;-1.624;2023-03-01T11:43:20;3.47;;;2.30;;
73120;SDS011;61307;49.628;-1.624;2023-03-01T11:46:06;3.30;;;2.08;;
73120;SDS011;61307;49.628;-1.624;2023-03-01T11:48:55;3.47;;;2.20;;
73120;SDS011;61307;49.628;-1.624;2023-03-01T11:51:35;3.15;;;2.03;;
73120;SDS011;61307;49.628;-1.624;2023-03-01T11:54:20;3.38;;;2.38;;
73120;SDS011;61307;49.628;-1.624;2023-03-01T11:56:57;5.55;;;2.20;;
73120;SDS011;61307;49.628;-1.624;2023-03-01T12:08:30;3.08;;;1.80;;
73120;SDS011;61307;49.628;-1.624;2023-03-01T12:11:09;4.93;;;2.10;;
73120;SDS011;61307;49.628;-1.624;2023-03-01T12:16:55;4.63;;;2.20;;
73120;SDS011;61307;49.628;-1.624;2023-03-01T12:22:45;4.18;;;2.22;;
73120;SDS011;61307;49.628;-1.624;2023-03-01T12:25:43;3.42;;;2.08;;
73120;SDS011;61307;49.628;-1.624;2023-03-01T12:31:19;2.58;;;2.00;;
73120;SDS011;61307;49.628;-1.624;2023-03-01T12:34:07;4.82;;;1.95;;
73120;SDS011;61307;49.628;-1.624;2023-03-01T12:36:49;4.95;;;2.35;;
73120;SDS011;61307;49.628;-1.624;2023-03-01T12:39:38;4.57;;;2.22;;
73120;SDS011;61307;49.628;-1.624;2023-03-01T12:42:17;5.25;;;2.17;;
73120;SDS011;61307;49.628;-1.624;2023-03-01T12:44:54;5.88;;;1.90;;
73120;SDS011;61307;49.628;-1.624;2023-03-01T12:47:39;2.83;;;2.15;;
73120;SDS011;61307;49.628;-1.624;2023-03-01T12:50:21;3.83;;;2.05;;
73120;SDS011;61307;49.628;-1.624;2023-03-01T12:52:52;4.57;;;2.20;;
73120;SDS011;61307;49.628;-1.624;2023-03-01T12:55:25;3.85;;;2.03;;
73120;SDS011;61307;49.628;-1.624;2023-03-01T12:57:57;4.90;;;2.03;;
73120;SDS011;61307;49.628;-1.624;2023-03-01T13:00:35;5.20;;;2.20;;
73120;SDS011;61307;49.628;-1.624;2023-03-01T13:03:10;5.65;;;2.05;;
73120;SDS011;61307;49.628;-1.624;2023-03-01T13:05:48;2.50;;;1.60;;
73120;SDS011;61307;49.628;-1.624;2023-03-01T13:08:29;7.57;;;2.00;;
73120;SDS011;61307;49.628;-1.624;2023-03-01T13:11:07;5.68;;;1.95;;
73120;SDS011;61307;49.628;-1.624;2023-03-01T13:16:59;8.80;;;2.03;;
73120;SDS011;61307;49.628;-1.624;2023-03-01T13:19:30;3.17;;;2.10;;
73120;SDS011;61307;49.628;-1.624;2023-03-01T13:22:01;3.83;;;2.10;;
73120;SDS011;61307;49.628;-1.624;2023-03-01T13:25:00;2.97;;;1.98;;
73120;SDS011;61307;49.628;-1.624;2023-03-01T13:27:46;5.18;;;2.00;;
73120;SDS011;61307;49.628;-1.624;2023-03-01T13:36:09;4.28;;;1.60;;
73120;SDS011;61307;49.628;-1.624;2023-03-01T13:38:44;2.75;;;1.88;;
73120;SDS011;61307;49.628;-1.624;2023-03-01T13:41:14;1.63;;;1.50;;
73120;SDS011;61307;49.628;-1.624;2023-03-01T13:43:49;2.58;;;1.50;;
73120;SDS011;61307;49.628;-1.624;2023-03-01T13:46:20;3.58;;;1.80;;
73120;SDS011;61307;49.628;-1.624;2023-03-01T13:48:50;4.80;;;1.98;;
73120;SDS011;61307;49.628;-1.624;2023-03-01T13:51:22;2.95;;;1.60;;
73120;SDS011;61307;49.628;-1.624;2023-03-01T13:53:54;3.00;;;1.60;;
73120;SDS011;61307;49.628;-1.624;2023-03-01T13:56:24;4.68;;;1.88;;
73120;SDS011;61307;49.628;-1.624;2023-03-01T13:58:59;2.85;;;1.75;;
73120;SDS011;61307;49.628;-1.624;2023-03-01T14:01:32;3.50;;;1.90;;
73120;SDS011;61307;49.628;-1.624;2023-03-01T14:04:03;4.93;;;2.05;;
73120;SDS011;61307;49.628;-1.624;2023-03-01T14:06:47;4.50;;;2.00;;
73120;SDS011;61307;49.628;-1.624;2023-03-01T14:09:20;3.45;;;2.13;;
73120;SDS011;61307;49.628;-1.624;2023-03-01T14:12:02;7.38;;;2.40;;
73120;SDS011;61307;49.628;-1.624;2023-03-01T14:14:44;5.63;;;2.45;;
73120;SDS011;61307;49.628;-1.624;2023-03-01T14:20:09;5.68;;;1.77;;
73120;SDS011;61307;49.628;-1.624;2023-03-01T14:22:42;4.35;;;2.20;;
73120;SDS011;61307;49.628;-1.624;2023-03-01T14:25:17;4.43;;;2.35;;
73120;SDS011;61307;49.628;-1.624;2023-03-01T14:27:50;6.47;;;2.05;;
73120;SDS011;61307;49.628;-1.624;2023-03-01T14:30:21;4.15;;;1.98;;
73120;SDS011;61307;49.628;-1.624;2023-03-01T14:33:00;6.78;;;1.88;;
73120;SDS011;61307;49.628;-1.624;2023-03-01T14:35:35;7.03;;;1.90;;
73120;SDS011;61307;49.628;-1.624;2023-03-01T14:38:19;7.77;;;2.00;;
73120;SDS011;61307;49.628;-1.624;2023-03-01T14:40:47;5.88;;;2.00;;
73120;SDS011;61307;49.628;-1.624;2023-03-01T14:43:19;3.17;;;1.75;;
73120;SDS011;61307;49.628;-1.624;2023-03-01T14:45:58;3.28;;;1.65;;
73120;SDS011;61307;49.628;-1.624;2023-03-01T14:48:30;3.22;;;1.85;;
73120;SDS011;61307;49.628;-1.624;2023-03-01T14:50:59;6.28;;;1.90;;
73120;SDS011;61307;49.628;-1.624;2023-03-01T14:53:32;5.25;;;2.03;;
73120;SDS011;61307;49.628;-1.624;2023-03-01T14:56:00;6.25;;;2.00;;
73120;SDS011;61307;49.628;-1.624;2023-03-01T14:58:28;6.85;;;2.10;;
73120;SDS011;61307;49.628;-1.624;2023-03-01T15:00:59;7.45;;;1.88;;
73120;SDS011;61307;49.628;-1.624;2023-03-01T15:03:27;2.95;;;1.80;;
73120;SDS011;61307;49.628;-1.624;2023-03-01T15:06:00;4.70;;;1.75;;
73120;SDS011;61307;49.628;-1.624;2023-03-01T15:08:28;3.65;;;2.00;;
73120;SDS011;61307;49.628;-1.624;2023-03-01T15:11:03;5.63;;;1.77;;
73120;SDS011;61307;49.628;-1.624;2023-03-01T15:13:42;3.95;;;1.55;;
73120;SDS011;61307;49.628;-1.624;2023-03-01T15:16:11;4.60;;;1.75;;
73120;SDS011;61307;49.628;-1.624;2023-03-01T15:18:43;2.10;;;1.65;;
73120;SDS011;61307;49.628;-1.624;2023-03-01T15:21:15;6.82;;;1.52;;
73120;SDS011;61307;49.628;-1.624;2023-03-01T15:23:47;4.90;;;1.88;;
73120;SDS011;61307;49.628;-1.624;2023-03-01T15:26:26;4.03;;;1.80;;
73120;SDS011;61307;49.628;-1.624;2023-03-01T15:28:57;6.95;;;2.33;;